Terminal Aerodrome Forecast
Issued by NWS Jackson, MS

Home | Current Version | Previous Version | Text Only | Print | Product List | Glossary On
Versions: 1 2 3 4 5 6 7 8 9 10 11 12
699
FTUS44 KJAN 170557
TAFGLH
TAF
KGLH 170557Z 1706/1806 12006KT P6SM BKN050 OVC090
     FM170800 07007KT 6SM RA BKN025 OVC050
     FM171000 07009KT 3SM RA BR BKN008 OVC025
     FM171600 11005KT P6SM BKN012 BKN100=

USA.gov is the U.S. government's official web portal to all federal, state and local government web resources and services.